Macon, North Carolina
Current Conditions -  °F | °C
As of 5:16 AM on Monday 26 Jan 2015 (Local Time) from KAVC Reporting Station
Broken Clouds Broken Clouds  
Wind Chill: 37°   Ceiling: 12000
Heat Index: 37°   Visibility: 10mi
Dew Point: 34°   Wind: 0mph
Humidity: 90%   Direction: NA
Pressure: 29.77"   Gusts: NA
Location:  36.44°N, 78.08°W
Report Text: KAVC 261016Z AUTO 00000KT 10SM BKN120 03/01 A2977 RMK AO2 T00260011
Loading
Personal Weather Stations






























Interactive Weather Map New forecast layout! Learn more

10-Day Weather Forecast

Advertisements
Track Severe Weather on mobile